TimeCDT,TemperatureF,Dew PointF,Humidity,Sea Level PressureIn,VisibilityMPH,Wind Direction,Wind SpeedMPH,Gust SpeedMPH,PrecipitationIn,Events,Conditions,WindDirDegrees,DateUTC
12:52 AM,60.1,45.0,57,29.92,10.0,SSE,6.9,-,N/A,,Clear,150,2011-10-14 05:52:00
1:52 AM,62.1,44.1,52,29.90,10.0,SSE,8.1,-,N/A,,Clear,150,2011-10-14 06:52:00
2:52 AM,63.0,43.0,48,29.90,10.0,South,8.1,-,N/A,,Clear,170,2011-10-14 07:52:00
3:52 AM,63.0,43.0,48,29.89,10.0,SSE,8.1,-,N/A,,Clear,160,2011-10-14 08:52:00
4:52 AM,63.0,42.1,46,29.89,10.0,SSE,9.2,-,N/A,,Clear,160,2011-10-14 09:52:00
5:52 AM,61.0,42.1,50,29.89,10.0,SSE,8.1,-,N/A,,Clear,160,2011-10-14 10:52:00
6:52 AM,63.0,41.0,45,29.89,10.0,SSE,8.1,-,N/A,,Clear,160,2011-10-14 11:52:00
7:52 AM,64.0,39.9,41,29.91,10.0,South,6.9,-,N/A,,Clear,170,2011-10-14 12:52:00
8:52 AM,66.9,41.0,39,29.93,10.0,South,11.5,-,N/A,,Clear,170,2011-10-14 13:52:00
9:52 AM,73.0,39.9,30,29.94,10.0,South,11.5,20.7,N/A,,Clear,170,2011-10-14 14:52:00
10:52 AM,75.0,41.0,29,29.95,10.0,South,16.1,-,N/A,,Clear,180,2011-10-14 15:52:00
11:52 AM,79.0,41.0,26,29.94,10.0,South,17.3,26.5,N/A,,Clear,190,2011-10-14 16:52:00
12:52 PM,80.1,42.1,26,29.92,10.0,SSW,21.9,27.6,N/A,,Clear,200,2011-10-14 17:52:00
1:52 PM,82.0,44.1,26,29.89,10.0,South,18.4,28.8,N/A,,Clear,180,2011-10-14 18:52:00
2:52 PM,84.0,44.1,25,29.86,10.0,SSW,21.9,25.3,N/A,,Clear,200,2011-10-14 19:52:00
3:52 PM,84.9,44.1,24,29.84,10.0,South,17.3,24.2,N/A,,Clear,190,2011-10-14 20:52:00
4:52 PM,84.9,44.1,24,29.83,10.0,SSW,17.3,23.0,N/A,,Clear,200,2011-10-14 21:52:00
5:52 PM,84.0,44.1,25,29.83,10.0,South,12.7,-,N/A,,Clear,190,2011-10-14 22:52:00
6:52 PM,81.0,45.0,28,29.83,10.0,South,9.2,-,N/A,,Clear,180,2011-10-14 23:52:00
7:52 PM,73.0,48.0,41,29.85,10.0,SSE,10.4,-,N/A,,Clear,150,2011-10-15 00:52:00
8:52 PM,73.0,46.0,38,29.85,10.0,SSE,11.5,-,N/A,,Clear,160,2011-10-15 01:52:00
9:52 PM,75.0,44.1,33,29.86,10.0,South,10.4,-,N/A,,Clear,170,2011-10-15 02:52:00
10:52 PM,73.9,44.1,34,29.88,10.0,South,11.5,-,N/A,,Clear,180,2011-10-15 03:52:00
11:52 PM,71.1,45.0,39,29.89,10.0,South,10.4,-,N/A,,Clear,180,2011-10-15 04:52:00